Time;durP1;ratioP1;P1;durP2;ratioP2;P2;SDS_P1;SDS_P2;PMS_P1;PMS_P2;Temp;Humidity;BMP_temperature;BMP_pressure;BME280_temperature;BME280_humidity;BME280_pressure;Samples;Min_cycle;Max_cycle;Signal;HPM_P1;HPM_P2
2021/12/29 00:00:29;;;;;;;4.63;1.87;;;;;;;7.99;97.67;95486.09;5113335;28;20403;-69
2021/12/29 00:02:56;;;;;;;3.00;1.95;;;;;;;8.04;97.33;95484.34;5113372;28;20713;-69
2021/12/29 00:05:22;;;;;;;4.72;1.88;;;;;;;8.12;96.30;95486.53;5113575;28;20803;-69
2021/12/29 00:07:48;;;;;;;3.03;1.80;;;;;;;8.06;96.60;95487.50;5114312;28;20429;-69
2021/12/29 00:10:15;;;;;;;6.57;2.10;;;;;;;7.91;97.05;95500.38;5095349;28;20407;-69
2021/12/29 00:12:45;;;;;;;4.40;1.73;;;;;;;7.96;97.19;95500.44;5113832;28;20396;-69
2021/12/29 00:15:13;;;;;;;3.70;1.77;;;;;;;7.87;97.16;95501.88;5113637;28;20393;-67
2021/12/29 00:17:40;;;;;;;4.30;1.73;;;;;;;8.06;96.66;95508.38;5113475;28;20399;-67
2021/12/29 00:20:07;;;;;;;4.18;1.88;;;;;;;8.13;96.17;95508.22;5113727;28;20797;-69
2021/12/29 00:22:33;;;;;;;3.33;1.70;;;;;;;8.04;97.35;95507.03;5113768;28;20411;-69
2021/12/29 00:24:58;;;;;;;3.30;1.50;;;;;;;8.04;96.89;95515.66;5095145;28;20872;-69
2021/12/29 00:27:23;;;;;;;2.30;1.40;;;;;;;8.07;96.85;95525.63;5113179;28;20425;-69
2021/12/29 00:29:49;;;;;;;2.53;1.60;;;;;;;8.08;96.17;95516.75;5113327;28;20798;-69
2021/12/29 00:32:14;;;;;;;7.22;1.80;;;;;;;8.12;96.00;95514.47;5113582;28;20385;-69
2021/12/29 00:34:40;;;;;;;3.10;1.60;;;;;;;8.13;95.88;95521.25;5113530;28;20849;-69
2021/12/29 00:37:05;;;;;;;3.47;1.60;;;;;;;8.03;96.77;95528.94;5112738;28;20937;-69
2021/12/29 00:39:30;;;;;;;3.30;1.67;;;;;;;8.19;96.40;95522.91;5112079;28;20460;-70
2021/12/29 00:41:56;;;;;;;2.67;1.50;;;;;;;8.00;97.85;95526.81;5112531;28;20392;-69
2021/12/29 00:44:21;;;;;;;3.13;1.60;;;;;;;7.96;98.32;95536.97;5112903;28;20434;-69
2021/12/29 00:46:52;;;;;;;2.43;1.57;;;;;;;7.98;98.40;95537.50;5113251;28;20532;-69
2021/12/29 00:49:18;;;;;;;2.95;1.80;;;;;;;8.02;98.23;95543.84;5112599;28;20380;-69
2021/12/29 00:51:43;;;;;;;2.80;1.63;;;;;;;7.94;98.58;95544.22;5112511;28;20416;-69
2021/12/29 00:54:09;;;;;;;3.90;1.90;;;;;;;7.94;99.07;95559.88;5112414;28;20388;-69
2021/12/29 00:56:34;;;;;;;2.90;1.77;;;;;;;7.89;99.85;95558.00;5112649;28;20384;-70
2021/12/29 00:59:00;;;;;;;3.70;1.80;;;;;;;7.98;99.90;95566.19;5112733;28;20380;-69
2021/12/29 01:01:25;;;;;;;4.87;1.90;;;;;;;7.99;99.76;95572.19;5111454;28;21053;-69
2021/12/29 01:03:51;;;;;;;4.07;1.80;;;;;;;7.94;100.00;95581.53;5112400;28;20385;-69
2021/12/29 01:06:16;;;;;;;3.70;1.80;;;;;;;7.87;100.00;95575.69;5112409;28;20408;-69
2021/12/29 01:08:41;;;;;;;3.83;1.67;;;;;;;7.80;100.00;95576.91;5094161;28;20408;-68
2021/12/29 01:11:07;;;;;;;3.67;1.80;;;;;;;7.86;100.00;95576.72;5112489;28;20747;-69
2021/12/29 01:13:34;;;;;;;3.50;1.50;;;;;;;7.72;100.00;95587.72;5112112;28;20392;-70
2021/12/29 01:18:30;;;;;;;2.80;1.50;;;;;;;7.75;100.00;95598.47;5112580;28;20387;-69
2021/12/29 01:20:56;;;;;;;3.03;1.87;;;;;;;7.76;100.00;95609.69;5112161;28;20396;-69
2021/12/29 01:23:23;;;;;;;2.47;1.70;;;;;;;7.79;100.00;95615.25;5112598;28;20380;-69
2021/12/29 01:25:48;;;;;;;2.90;1.70;;;;;;;7.73;100.00;95625.81;5111592;28;20487;-70
2021/12/29 01:28:14;;;;;;;3.08;1.73;;;;;;;7.73;100.00;95621.41;5111362;28;20908;-69
2021/12/29 01:30:39;;;;;;;2.20;1.40;;;;;;;7.69;100.00;95635.91;5111895;28;20760;-67
2021/12/29 01:33:06;;;;;;;2.92;1.73;;;;;;;7.72;100.00;95632.84;5112258;28;20791;-67
2021/12/29 01:35:39;;;;;;;2.08;1.50;;;;;;;7.79;100.00;95637.91;5093946;28;20457;-68
2021/12/29 01:38:07;;;;;;;2.30;1.33;;;;;;;7.82;100.00;95647.88;5106732;28;20437;-68
2021/12/29 01:40:33;;;;;;;1.88;1.23;;;;;;;7.84;100.00;95645.81;5111951;28;20388;-68
2021/12/29 01:42:59;;;;;;;1.92;1.30;;;;;;;8.03;99.42;95647.16;5112145;28;20385;-68
2021/12/29 01:45:25;;;;;;;2.42;1.50;;;;;;;7.98;99.32;95656.72;5111699;28;20474;-67
2021/12/29 01:47:51;;;;;;;1.43;1.23;;;;;;;7.89;99.46;95659.72;5112176;28;20395;-67
2021/12/29 01:50:18;;;;;;;1.63;1.40;;;;;;;7.94;99.28;95656.41;5111378;28;20510;-67
2021/12/29 01:52:52;;;;;;;2.08;1.50;;;;;;;8.03;99.15;95673.25;5111687;28;20388;-67
2021/12/29 01:55:18;;;;;;;2.03;1.27;;;;;;;7.95;99.41;95684.09;5111858;28;20526;-68
2021/12/29 01:57:44;;;;;;;1.60;1.40;;;;;;;8.22;98.32;95684.22;5111634;28;20459;-67
2021/12/29 02:00:14;;;;;;;1.50;1.40;;;;;;;8.12;98.67;95686.69;5111655;28;20416;-67
2021/12/29 02:02:41;;;;;;;2.60;1.27;;;;;;;8.16;98.21;95693.00;5111478;28;20411;-67
2021/12/29 02:05:07;;;;;;;1.67;1.20;;;;;;;8.14;98.08;95700.28;5111695;28;20384;-68
2021/12/29 02:07:32;;;;;;;1.20;1.20;;;;;;;8.23;97.53;95701.47;5111735;28;20471;-67
2021/12/29 02:09:58;;;;;;;2.75;1.38;;;;;;;8.23;97.05;95704.88;5111019;28;20639;-68
2021/12/29 02:12:23;;;;;;;2.07;1.10;;;;;;;8.25;96.67;95709.84;5110031;28;20452;-67
2021/12/29 02:14:49;;;;;;;1.20;1.10;;;;;;;8.27;97.50;95713.03;5111924;28;20559;-68
2021/12/29 02:17:14;;;;;;;1.30;1.20;;;;;;;8.13;97.59;95701.34;5111363;28;20411;-67
2021/12/29 02:19:46;;;;;;;1.23;1.13;;;;;;;8.14;98.19;95702.88;5111646;28;20453;-67
2021/12/29 02:22:41;;;;;;;1.23;1.13;;;;;;;8.17;96.98;95703.22;5111492;28;20488;-68
2021/12/29 02:25:21;;;;;;;1.48;1.20;;;;;;;8.23;96.94;95709.31;5096661;28;20469;-67
2021/12/29 02:27:46;;;;;;;1.42;1.30;;;;;;;8.25;96.54;95721.09;5111485;28;20434;-67
2021/12/29 02:30:13;;;;;;;1.40;1.20;;;;;;;8.21;96.70;95716.56;5111171;28;20440;-67
2021/12/29 02:32:39;;;;;;;1.30;1.10;;;;;;;8.20;96.81;95731.44;5111511;28;20841;-68
2021/12/29 02:35:05;;;;;;;1.20;1.20;;;;;;;8.20;96.43;95735.88;5110979;28;20846;-67
2021/12/29 02:37:30;;;;;;;1.75;1.20;;;;;;;8.27;95.98;95741.72;5111422;28;20473;-67
2021/12/29 02:39:56;;;;;;;1.20;1.10;;;;;;;8.14;96.29;95745.44;5111363;28;20478;-67
2021/12/29 02:42:26;;;;;;;2.10;1.17;;;;;;;8.24;95.74;95737.78;5111224;28;20418;-67
2021/12/29 02:44:52;;;;;;;1.00;1.00;;;;;;;8.20;95.99;95748.91;5111649;28;20412;-67
2021/12/29 02:47:18;;;;;;;1.48;1.20;;;;;;;8.17;96.57;95765.88;5111380;28;20389;-68
2021/12/29 02:49:45;;;;;;;1.42;1.10;;;;;;;8.03;97.62;95774.22;5110921;28;20388;-68
2021/12/29 02:52:13;;;;;;;1.40;1.30;;;;;;;8.08;97.65;95775.09;5110924;28;20396;-67
2021/12/29 02:54:38;;;;;;;1.85;1.10;;;;;;;8.18;96.80;95774.47;5092876;28;20423;-67
2021/12/29 02:57:04;;;;;;;1.20;1.10;;;;;;;8.10;96.28;95780.88;5111065;28;20473;-67
2021/12/29 02:59:29;;;;;;;1.00;1.00;;;;;;;8.12;94.66;95776.22;5110328;28;20403;-67
2021/12/29 03:01:55;;;;;;;1.40;1.10;;;;;;;8.15;94.11;95775.72;5110352;28;20384;-67
2021/12/29 03:04:20;;;;;;;1.15;1.05;;;;;;;8.22;93.47;95783.41;5113130;28;20458;-67
2021/12/29 03:06:46;;;;;;;1.10;1.10;;;;;;;8.08;93.69;95782.91;5115497;28;20404;-67
2021/12/29 03:09:16;;;;;;;1.00;1.00;;;;;;;8.11;93.48;95792.09;5114713;28;20745;-68
2021/12/29 03:11:42;;;;;;;2.38;1.13;;;;;;;8.13;93.21;95795.28;5115101;28;20484;-67
2021/12/29 03:14:08;;;;;;;1.10;1.10;;;;;;;8.19;92.62;95805.56;5114770;28;20416;-67
2021/12/29 03:16:34;;;;;;;0.90;0.90;;;;;;;8.12;91.85;95820.59;5114824;28;20396;-68
2021/12/29 03:19:02;;;;;;;0.80;0.80;;;;;;;8.26;92.37;95828.91;5114585;28;20381;-67
2021/12/29 03:21:28;;;;;;;1.17;0.85;;;;;;;8.38;91.82;95832.28;5114905;28;20432;-67
2021/12/29 03:23:54;;;;;;;0.80;0.80;;;;;;;8.40;91.17;95813.78;5114682;28;20389;-67
2021/12/29 03:26:19;;;;;;;0.70;0.70;;;;;;;8.36;91.78;95821.25;5114903;28;20411;-66
2021/12/29 03:28:45;;;;;;;1.00;1.00;;;;;;;8.41;91.50;95805.72;5095968;28;20392;-69
2021/12/29 03:31:14;;;;;;;1.85;1.00;;;;;;;8.34;91.47;95800.63;5114675;28;20412;-68
2021/12/29 03:33:42;;;;;;;0.98;0.98;;;;;;;8.29;91.50;95805.75;5114359;28;20404;-67
2021/12/29 03:36:08;;;;;;;0.82;0.82;;;;;;;8.28;92.13;95812.00;5114469;28;20482;-67
2021/12/29 03:38:36;;;;;;;0.90;0.90;;;;;;;8.31;91.86;95811.53;5114334;28;20443;-67
2021/12/29 03:41:05;;;;;;;0.90;0.90;;;;;;;8.26;92.46;95810.63;5114121;28;20419;-68
2021/12/29 03:43:32;;;;;;;1.20;1.00;;;;;;;8.43;92.03;95814.06;5113807;28;20779;-68
2021/12/29 03:45:59;;;;;;;0.98;0.98;;;;;;;8.46;92.23;95820.66;5103491;28;20404;-67
2021/12/29 03:48:27;;;;;;;1.00;1.00;;;;;;;8.50;92.11;95819.94;5114503;28;20380;-67
2021/12/29 03:50:54;;;;;;;0.80;0.80;;;;;;;8.45;92.42;95834.75;5114306;28;20412;-67
2021/12/29 03:53:20;;;;;;;0.80;0.80;;;;;;;8.63;91.59;95839.75;5114031;28;20519;-67
2021/12/29 03:55:49;;;;;;;0.90;0.90;;;;;;;8.67;92.19;95839.03;5114068;28;20384;-68
2021/12/29 03:58:15;;;;;;;1.10;0.90;;;;;;;8.66;93.43;95836.66;5113831;28;20821;-68
2021/12/29 04:00:41;;;;;;;0.90;0.90;;;;;;;8.60;93.87;95837.59;5113877;28;20419;-68
2021/12/29 04:03:07;;;;;;;0.80;0.80;;;;;;;8.53;95.72;95835.13;5113544;28;20486;-68
2021/12/29 04:05:32;;;;;;;0.90;0.90;;;;;;;8.32;97.63;95839.22;5114012;28;20395;-68
2021/12/29 04:07:58;;;;;;;1.20;1.10;;;;;;;8.30;98.90;95841.28;5095575;28;20431;-68
2021/12/29 04:10:24;;;;;;;2.43;1.40;;;;;;;8.39;98.62;95844.31;5114011;28;20568;-68
2021/12/29 04:12:49;;;;;;;3.05;2.30;;;;;;;8.30;99.34;95858.78;5114090;28;20809;-67
2021/12/29 04:15:16;;;;;;;5.73;4.13;;;;;;;8.25;100.00;95853.41;5094319;28;20408;-68
2021/12/29 04:17:43;;;;;;;12.57;7.03;;;;;;;8.35;100.00;95861.47;5113961;28;20406;-68
2021/12/29 04:23:05;;;;;;;2.47;1.92;;;;;;;8.23;100.00;95861.50;5113770;28;20394;-69
2021/12/29 04:25:34;;;;;;;1.40;1.30;;;;;;;8.03;100.00;95865.53;5088345;28;20392;-68
2021/12/29 04:28:01;;;;;;;1.40;1.10;;;;;;;8.12;100.00;95872.00;5113542;28;20483;-68
2021/12/29 04:30:27;;;;;;;4.63;1.23;;;;;;;7.98;100.00;95879.28;5112497;28;20427;-68
2021/12/29 04:32:53;;;;;;;1.30;1.17;;;;;;;8.09;100.00;95882.88;5095287;28;20377;-67
2021/12/29 04:35:22;;;;;;;1.27;1.20;;;;;;;8.07;100.00;95901.41;5113334;28;20392;-68
2021/12/29 04:37:49;;;;;;;1.90;1.20;;;;;;;8.06;100.00;95907.63;5112641;28;20542;-68
2021/12/29 04:40:15;;;;;;;2.88;1.27;;;;;;;8.03;100.00;95900.25;5113331;28;20861;-68
2021/12/29 04:42:40;;;;;;;1.00;1.00;;;;;;;7.93;100.00;95894.84;5113016;28;20476;-68
2021/12/29 04:45:06;;;;;;;1.67;1.30;;;;;;;8.01;100.00;95884.06;5113015;28;20729;-68
2021/12/29 04:47:35;;;;;;;1.40;1.00;;;;;;;7.95;100.00;95892.81;5112948;28;20411;-68
2021/12/29 04:50:02;;;;;;;1.60;1.50;;;;;;;7.95;100.00;95898.03;5094490;28;20479;-68
2021/12/29 04:52:29;;;;;;;1.73;1.40;;;;;;;7.87;100.00;95904.38;5113363;28;20387;-68
2021/12/29 04:54:55;;;;;;;1.48;1.33;;;;;;;8.02;100.00;95908.34;5113185;28;20489;-68
2021/12/29 04:57:21;;;;;;;2.10;1.30;;;;;;;7.85;100.00;95908.28;5113409;28;20895;-69
2021/12/29 04:59:47;;;;;;;2.50;1.60;;;;;;;7.97;100.00;95914.22;5112425;28;20380;-68
2021/12/29 05:02:12;;;;;;;1.77;1.40;;;;;;;7.97;100.00;95914.22;5094403;28;20722;-68
2021/12/29 05:04:46;;;;;;;2.10;1.47;;;;;;;7.97;100.00;95910.84;5112929;28;20749;-68
2021/12/29 05:09:58;;;;;;;1.55;1.30;;;;;;;7.94;100.00;95907.66;5096909;28;20942;-68
2021/12/29 05:12:23;;;;;;;1.80;1.30;;;;;;;7.87;100.00;95919.25;5112754;28;20864;-68
2021/12/29 05:14:49;;;;;;;2.47;1.57;;;;;;;7.81;100.00;95918.34;5112694;28;20391;-68
2021/12/29 05:17:14;;;;;;;2.50;1.30;;;;;;;7.92;100.00;95924.56;5111804;28;20874;-68
2021/12/29 05:19:39;;;;;;;1.60;1.50;;;;;;;7.78;100.00;95931.88;5113134;28;20853;-68
2021/12/29 05:22:05;;;;;;;2.22;1.45;;;;;;;7.72;100.00;95926.78;5112993;28;20472;-68
2021/12/29 05:24:31;;;;;;;1.30;1.10;;;;;;;7.75;100.00;95940.13;5112220;28;20396;-68
2021/12/29 05:26:57;;;;;;;2.90;1.37;;;;;;;7.87;100.00;95942.72;5111435;28;20414;-68
2021/12/29 05:29:22;;;;;;;1.98;1.30;;;;;;;7.74;100.00;95938.56;5112517;28;20384;-68
2021/12/29 05:31:48;;;;;;;1.35;1.10;;;;;;;7.73;100.00;95939.59;5112499;28;20420;-68
2021/12/29 05:34:14;;;;;;;1.40;1.30;;;;;;;7.74;100.00;95938.56;5112494;28;20403;-68
2021/12/29 05:36:39;;;;;;;1.83;1.27;;;;;;;7.90;100.00;95953.50;5112337;28;20416;-68
2021/12/29 05:39:05;;;;;;;1.80;1.40;;;;;;;7.89;100.00;95940.69;5112060;28;20495;-68
2021/12/29 05:41:30;;;;;;;1.50;1.20;;;;;;;7.90;100.00;95942.28;5112238;28;20392;-68
2021/12/29 05:43:55;;;;;;;2.50;1.30;;;;;;;7.72;100.00;95950.25;5094060;28;20443;-68
2021/12/29 05:46:21;;;;;;;2.13;1.60;;;;;;;7.82;100.00;95948.63;5112017;28;20456;-68
2021/12/29 05:48:46;;;;;;;2.53;1.50;;;;;;;7.74;100.00;95948.22;5112006;28;20376;-68
2021/12/29 05:51:12;;;;;;;1.47;1.33;;;;;;;7.65;100.00;95952.97;5111860;28;20404;-68
2021/12/29 05:53:42;;;;;;;1.50;1.40;;;;;;;7.78;100.00;95964.97;5112073;28;20389;-68
2021/12/29 05:56:09;;;;;;;1.93;1.40;;;;;;;7.62;100.00;95965.69;5112049;28;20400;-68
2021/12/29 05:58:36;;;;;;;1.85;1.33;;;;;;;7.67;100.00;95971.00;5112080;28;20388;-68
2021/12/29 06:01:02;;;;;;;2.42;1.35;;;;;;;7.58;100.00;95967.94;5111678;28;20679;-68
2021/12/29 06:03:28;;;;;;;1.50;1.30;;;;;;;7.71;100.00;95975.53;5110493;28;20400;-68
2021/12/29 06:05:53;;;;;;;1.87;1.50;;;;;;;7.72;100.00;95976.31;5112095;28;20405;-68
2021/12/29 06:08:18;;;;;;;3.00;1.60;;;;;;;7.73;100.00;95977.91;5111897;28;20391;-69
2021/12/29 06:10:44;;;;;;;1.47;1.37;;;;;;;7.80;100.00;95983.81;5111845;28;20761;-68
2021/12/29 06:13:10;;;;;;;2.97;1.43;;;;;;;7.79;100.00;95990.03;5111750;28;20455;-68
2021/12/29 06:15:36;;;;;;;2.15;1.50;;;;;;;7.71;100.00;95991.19;5095387;28;20384;-68
2021/12/29 06:18:03;;;;;;;2.58;1.50;;;;;;;7.57;100.00;95987.22;5111749;28;20391;-69
2021/12/29 06:20:28;;;;;;;2.28;1.50;;;;;;;7.72;100.00;95984.16;5110934;28;20570;-69
2021/12/29 06:22:54;;;;;;;3.10;1.43;;;;;;;7.74;100.00;95987.34;5111545;28;20772;-70
2021/12/29 06:25:19;;;;;;;1.65;1.52;;;;;;;7.70;100.00;95983.56;5111427;28;20778;-68
2021/12/29 06:27:45;;;;;;;2.53;1.80;;;;;;;7.91;100.00;95983.78;5112034;28;20377;-68
2021/12/29 06:30:13;;;;;;;2.87;1.97;;;;;;;7.78;100.00;95983.25;5111427;28;20413;-68
2021/12/29 06:32:39;;;;;;;1.70;1.60;;;;;;;7.82;100.00;95979.94;5111544;28;20392;-68
2021/12/29 06:35:07;;;;;;;2.10;1.50;;;;;;;7.79;100.00;95990.03;5111197;28;20493;-68
2021/12/29 06:37:33;;;;;;;1.80;1.50;;;;;;;7.97;100.00;95989.13;5111292;28;20408;-68
2021/12/29 06:39:58;;;;;;;3.30;1.40;;;;;;;7.77;100.00;95984.25;5115175;28;20391;-68
2021/12/29 06:42:24;;;;;;;1.67;1.45;;;;;;;7.71;100.00;95985.97;5115635;28;20387;-68
2021/12/29 06:44:49;;;;;;;3.17;1.57;;;;;;;7.88;100.00;95991.28;5115622;28;20388;-67
2021/12/29 06:47:15;;;;;;;3.17;1.52;;;;;;;7.90;100.00;95991.84;5114983;28;20884;-68
2021/12/29 06:49:41;;;;;;;2.72;1.40;;;;;;;7.93;100.00;95991.38;5115382;28;20400;-68
2021/12/29 06:52:06;;;;;;;2.17;1.30;;;;;;;8.02;100.00;95999.66;5115612;28;20412;-69
2021/12/29 06:54:33;;;;;;;3.27;1.57;;;;;;;7.92;100.00;95998.41;5115643;28;20749;-67
2021/12/29 06:56:59;;;;;;;2.25;1.50;;;;;;;7.95;100.00;96007.59;5115509;28;20389;-68
2021/12/29 06:59:24;;;;;;;2.33;1.50;;;;;;;7.69;100.00;96005.47;5115179;28;20690;-69
2021/12/29 07:01:50;;;;;;;1.63;1.52;;;;;;;7.87;100.00;96011.34;5096819;28;20384;-68
2021/12/29 07:04:15;;;;;;;2.57;1.60;;;;;;;7.91;100.00;96022.91;5096920;28;20403;-68
2021/12/29 07:06:42;;;;;;;2.55;1.63;;;;;;;7.86;100.00;96022.81;5114990;28;20441;-67
2021/12/29 07:09:07;;;;;;;2.00;1.42;;;;;;;7.82;100.00;96020.88;5115465;28;20392;-68
2021/12/29 07:11:34;;;;;;;2.72;1.52;;;;;;;7.65;100.00;96030.41;5115341;28;20899;-68
2021/12/29 07:14:03;;;;;;;1.90;1.30;;;;;;;7.74;100.00;96040.28;5097342;28;20403;-67
2021/12/29 07:16:29;;;;;;;1.97;1.60;;;;;;;7.82;100.00;96052.97;5115223;28;20416;-67
2021/12/29 07:18:54;;;;;;;2.90;1.85;;;;;;;7.85;100.00;96054.34;5115620;28;20396;-67
2021/12/29 07:21:20;;;;;;;2.60;1.70;;;;;;;7.92;100.00;96060.22;5116183;28;20456;-67
2021/12/29 07:23:46;;;;;;;2.20;1.80;;;;;;;7.75;100.00;96060.13;5114578;28;20748;-68
2021/12/29 07:26:11;;;;;;;2.78;1.70;;;;;;;7.91;100.00;96069.09;5114869;28;20415;-68
2021/12/29 07:28:37;;;;;;;1.87;1.60;;;;;;;8.08;100.00;96075.19;5114950;28;20393;-68
2021/12/29 07:31:02;;;;;;;2.10;1.67;;;;;;;7.87;100.00;96073.16;5114872;28;20396;-68
2021/12/29 07:33:28;;;;;;;2.13;1.70;;;;;;;7.75;100.00;96083.59;5114606;28;20440;-69
2021/12/29 07:35:53;;;;;;;2.63;1.70;;;;;;;7.85;100.00;96073.41;5113368;28;20867;-68
2021/12/29 07:38:19;;;;;;;2.07;1.70;;;;;;;7.83;100.00;96093.72;5114742;28;20401;-67
2021/12/29 07:40:44;;;;;;;2.23;1.73;;;;;;;7.80;100.00;96091.53;5114336;28;20463;-68
2021/12/29 07:43:09;;;;;;;3.03;1.60;;;;;;;7.85;100.00;96096.91;5114265;28;20399;-68
2021/12/29 07:45:36;;;;;;;2.07;1.70;;;;;;;7.82;100.00;96097.34;5114511;28;20420;-69
2021/12/29 07:48:04;;;;;;;1.90;1.42;;;;;;;7.82;100.00;96107.75;5114703;28;20786;-68
2021/12/29 07:50:30;;;;;;;2.17;1.52;;;;;;;7.92;100.00;96109.81;5113742;28;20764;-68
2021/12/29 07:52:55;;;;;;;1.80;1.30;;;;;;;7.90;100.00;96111.88;5113953;28;20388;-68
2021/12/29 07:55:20;;;;;;;1.70;1.60;;;;;;;7.85;100.00;96117.75;5114269;28;20794;-69
2021/12/29 07:57:47;;;;;;;1.60;1.50;;;;;;;7.96;100.00;96112.78;5113886;28;20384;-68
2021/12/29 08:00:14;;;;;;;3.45;1.77;;;;;;;7.87;100.00;96114.91;5114151;28;20858;-68
2021/12/29 08:02:43;;;;;;;2.83;1.60;;;;;;;7.94;100.00;96118.22;5113635;28;20471;-68
2021/12/29 08:05:10;;;;;;;1.90;1.60;;;;;;;7.97;100.00;96119.59;5113739;28;20427;-68
2021/12/29 08:07:36;;;;;;;2.53;1.58;;;;;;;7.97;100.00;96120.34;5114368;28;20428;-69
2021/12/29 08:10:03;;;;;;;2.13;1.50;;;;;;;7.93;100.00;96120.03;5113245;28;20435;-67
2021/12/29 08:12:28;;;;;;;2.03;1.20;;;;;;;7.95;100.00;96135.47;5114155;28;20403;-69
2021/12/29 08:14:54;;;;;;;2.50;1.50;;;;;;;7.73;100.00;96139.63;5114284;28;20372;-68
2021/12/29 08:17:19;;;;;;;1.38;1.27;;;;;;;7.84;100.00;96129.22;5113826;28;20431;-68
2021/12/29 08:19:45;;;;;;;2.57;1.37;;;;;;;8.06;100.00;96113.00;5114137;28;20475;-69
2021/12/29 08:22:11;;;;;;;1.30;1.17;;;;;;;7.97;100.00;96133.41;5095076;28;20389;-69
2021/12/29 08:24:36;;;;;;;1.73;1.40;;;;;;;8.01;100.00;96131.16;5113501;28;20391;-69
2021/12/29 08:27:02;;;;;;;4.67;1.93;;;;;;;8.03;100.00;96132.50;5113614;28;20372;-67
2021/12/29 08:29:27;;;;;;;2.07;1.97;;;;;;;8.03;100.00;96142.16;5095257;28;20465;-66
2021/12/29 08:31:55;;;;;;;1.60;1.40;;;;;;;8.10;100.00;96148.84;5113354;28;20495;-66
2021/12/29 08:34:20;;;;;;;1.50;1.40;;;;;;;8.08;100.00;96155.34;5094878;28;20880;-68
2021/12/29 08:36:45;;;;;;;2.00;1.80;;;;;;;8.16;100.00;96158.38;5102395;28;20488;-66
2021/12/29 08:39:11;;;;;;;2.73;1.70;;;;;;;8.25;100.00;96140.56;5112504;28;20477;-66
2021/12/29 08:41:36;;;;;;;3.03;1.80;;;;;;;8.28;100.00;96153.97;5113589;28;20813;-66
2021/12/29 08:44:02;;;;;;;2.10;1.93;;;;;;;8.46;100.00;96142.66;5113774;28;20414;-67
2021/12/29 08:46:28;;;;;;;2.00;1.90;;;;;;;8.41;100.00;96139.94;5112841;28;20396;-69
2021/12/29 08:48:55;;;;;;;3.88;2.15;;;;;;;8.55;100.00;96136.03;5112984;28;20730;-66
2021/12/29 08:51:21;;;;;;;2.47;1.83;;;;;;;8.49;100.00;96134.34;5112619;28;20495;-66
2021/12/29 08:53:47;;;;;;;1.93;1.73;;;;;;;8.47;100.00;96143.44;5112702;28;20557;-67
2021/12/29 08:56:14;;;;;;;1.73;1.63;;;;;;;8.49;100.00;96144.00;5112684;28;20381;-66
2021/12/29 08:58:40;;;;;;;4.70;1.83;;;;;;;8.51;100.00;96136.72;5112418;28;20559;-66
2021/12/29 09:01:05;;;;;;;2.13;2.00;;;;;;;8.28;100.00;96150.56;5111391;28;20541;-67
2021/12/29 09:03:30;;;;;;;2.20;1.70;;;;;;;8.39;100.00;96146.38;5112745;28;20920;-68
2021/12/29 09:05:56;;;;;;;1.80;1.70;;;;;;;8.37;100.00;96146.59;5094287;28;20780;-67
2021/12/29 09:08:21;;;;;;;2.10;1.90;;;;;;;8.43;100.00;96150.13;5112066;28;20880;-67
2021/12/29 09:10:47;;;;;;;1.80;1.65;;;;;;;8.54;100.00;96147.50;5111872;28;20423;-67
2021/12/29 09:13:13;;;;;;;1.90;1.70;;;;;;;8.55;100.00;96148.31;5112430;28;20392;-66
2021/12/29 09:15:39;;;;;;;1.80;1.70;;;;;;;8.76;100.00;96145.88;5113019;28;20736;-67
2021/12/29 09:18:05;;;;;;;2.05;1.65;;;;;;;8.79;100.00;96147.25;5112109;28;20468;-67
2021/12/29 09:20:33;;;;;;;2.43;2.07;;;;;;;8.75;100.00;96154.72;5112470;28;20479;-67
2021/12/29 09:23:03;;;;;;;2.73;1.80;;;;;;;8.94;100.00;96165.84;5112300;28;20380;-65
2021/12/29 09:25:29;;;;;;;2.20;2.00;;;;;;;9.18;100.00;96154.31;5112072;28;20388;-66
2021/12/29 09:27:55;;;;;;;2.27;2.10;;;;;;;9.13;100.00;96166.47;5111971;28;20857;-65
2021/12/29 09:30:24;;;;;;;2.30;2.10;;;;;;;9.22;100.00;96154.63;5111897;28;20412;-64
2021/12/29 09:32:50;;;;;;;2.45;1.60;;;;;;;9.18;100.00;96163.97;5111997;28;20496;-64
2021/12/29 09:35:16;;;;;;;2.53;1.60;;;;;;;9.17;100.00;96160.53;5111381;28;20791;-64
2021/12/29 09:37:42;;;;;;;2.33;1.77;;;;;;;9.25;100.00;96161.22;5111718;28;20417;-64
2021/12/29 09:40:10;;;;;;;2.50;1.90;;;;;;;9.35;100.00;96172.66;5112495;28;20396;-64
2021/12/29 09:42:35;;;;;;;2.00;1.80;;;;;;;9.26;100.00;96173.22;5093703;28;20757;-65
2021/12/29 09:45:02;;;;;;;2.00;1.80;;;;;;;9.03;100.00;96174.91;5111904;28;20388;-66
2021/12/29 09:47:28;;;;;;;1.90;1.80;;;;;;;8.85;100.00;96175.06;5112008;28;20478;-66
2021/12/29 09:49:54;;;;;;;2.38;1.65;;;;;;;8.91;100.00;96184.59;5093689;28;20920;-65
2021/12/29 09:52:20;;;;;;;2.10;1.70;;;;;;;9.01;100.00;96176.16;5110923;28;20507;-66
2021/12/29 09:54:46;;;;;;;2.60;1.90;;;;;;;9.30;100.00;96174.38;5111770;28;20385;-66
2021/12/29 09:57:12;;;;;;;1.83;1.73;;;;;;;9.41;100.00;96174.34;5111537;28;20410;-65
2021/12/29 09:59:37;;;;;;;2.20;1.70;;;;;;;9.23;100.00;96176.34;5111006;28;20388;-65
2021/12/29 10:02:04;;;;;;;2.20;1.80;;;;;;;9.19;100.00;96184.63;5110707;27;20757;-66
2021/12/29 10:04:34;;;;;;;2.03;1.83;;;;;;;9.44;100.00;96184.31;5111682;27;20387;-67
2021/12/29 10:07:14;;;;;;;2.50;1.63;;;;;;;9.20;100.00;96188.03;5110826;28;20394;-66
2021/12/29 10:09:39;;;;;;;5.25;1.90;;;;;;;9.50;100.00;96187.81;5110080;28;20408;-66
2021/12/29 10:12:08;;;;;;;1.90;1.80;;;;;;;9.25;100.00;96189.97;5110523;28;20924;-67
2021/12/29 10:14:34;;;;;;;3.13;2.17;;;;;;;9.58;100.00;96185.59;5110932;28;20714;-65
2021/12/29 10:16:59;;;;;;;2.80;2.08;;;;;;;9.59;100.00;96184.59;5093397;28;20510;-65
2021/12/29 10:19:24;;;;;;;2.47;2.20;;;;;;;9.54;100.00;96176.66;5110576;28;20391;-64
2021/12/29 10:21:50;;;;;;;2.63;2.07;;;;;;;9.49;100.00;96171.31;5111075;28;20467;-65
2021/12/29 10:24:18;;;;;;;2.67;2.03;;;;;;;9.52;100.00;96164.84;5107354;28;20508;-71
2021/12/29 10:26:46;;;;;;;2.05;1.85;;;;;;;9.49;100.00;96170.53;5106249;28;20495;-64
2021/12/29 10:29:16;;;;;;;1.92;1.63;;;;;;;9.50;100.00;96169.50;5105905;28;20434;-65
2021/12/29 10:31:51;;;;;;;2.45;1.80;;;;;;;9.67;100.00;96161.69;5110821;28;20500;-64
2021/12/29 10:34:26;;;;;;;2.22;1.70;;;;;;;9.67;100.00;96162.50;5111746;28;20407;-66
2021/12/29 10:37:08;;;;;;;2.50;1.70;;;;;;;9.91;100.00;96158.72;5110264;28;20411;-66
2021/12/29 10:39:56;;;;;;;2.33;1.50;;;;;;;9.65;99.92;96167.16;5110100;28;20392;-67
2021/12/29 10:42:25;;;;;;;2.22;1.73;;;;;;;9.70;100.00;96154.16;5111593;28;20461;-65
2021/12/29 10:44:59;;;;;;;2.63;1.70;;;;;;;9.96;99.36;96158.78;5110994;28;20396;-65
2021/12/29 10:47:32;;;;;;;2.08;1.70;;;;;;;9.84;99.54;96144.19;5111449;28;20384;-66
2021/12/29 10:50:01;;;;;;;1.60;1.50;;;;;;;9.66;99.71;96147.81;5111083;28;20423;-65
2021/12/29 10:52:29;;;;;;;2.75;1.80;;;;;;;9.76;100.00;96147.19;5111102;28;20422;-66
2021/12/29 10:54:55;;;;;;;2.50;1.88;;;;;;;9.95;98.73;96151.97;5092899;28;20399;-65
2021/12/29 10:57:20;;;;;;;2.65;1.60;;;;;;;9.91;97.32;96147.44;5092698;28;20463;-65
2021/12/29 10:59:55;;;;;;;2.10;1.80;;;;;;;9.94;98.08;96154.81;5091706;28;20403;-65
2021/12/29 11:02:27;;;;;;;3.45;1.85;;;;;;;10.12;96.81;96157.22;5076189;28;20881;-64
2021/12/29 11:04:57;;;;;;;2.60;1.60;;;;;;;9.96;97.92;96158.78;5109286;28;20420;-69
2021/12/29 11:07:28;;;;;;;1.73;1.63;;;;;;;10.24;96.56;96159.78;5106767;28;20392;-65
2021/12/29 11:09:55;;;;;;;2.08;1.60;;;;;;;9.86;97.28;96160.47;5110564;28;20395;-66
2021/12/29 11:12:23;;;;;;;3.03;1.42;;;;;;;10.11;96.51;96155.63;5108556;28;20434;-64
2021/12/29 11:14:53;;;;;;;4.03;1.70;;;;;;;10.15;95.18;96159.34;5108567;28;20428;-64
2021/12/29 11:17:25;;;;;;;2.67;1.92;;;;;;;10.37;93.85;96148.94;5110563;28;20391;-64
2021/12/29 11:19:57;;;;;;;3.08;1.75;;;;;;;10.11;94.98;96155.63;5110261;28;20771;-64
2021/12/29 11:22:28;;;;;;;1.95;1.40;;;;;;;9.95;95.60;96149.34;5109693;28;20452;-65
2021/12/29 11:25:03;;;;;;;1.67;1.55;;;;;;;9.84;96.46;96146.81;5101508;28;20416;-64
2021/12/29 11:27:31;;;;;;;2.20;1.60;;;;;;;10.04;95.98;96149.72;5114458;28;20395;-64
2021/12/29 11:29:59;;;;;;;2.20;1.60;;;;;;;9.97;95.35;96141.28;5113380;28;20422;-64
2021/12/29 11:32:34;;;;;;;1.65;1.30;;;;;;;10.03;94.83;96138.47;5114618;28;20491;-64
2021/12/29 11:35:18;;;;;;;2.20;1.60;;;;;;;10.07;93.83;96130.16;5103754;28;20893;-65
2021/12/29 11:37:46;;;;;;;2.15;1.50;;;;;;;10.04;93.48;96134.03;5113061;28;20461;-64
2021/12/29 11:40:19;;;;;;;2.65;1.48;;;;;;;10.02;95.22;96133.50;5113597;28;20443;-64
2021/12/29 11:42:44;;;;;;;2.20;1.40;;;;;;;10.03;94.26;96127.19;5113491;28;20391;-64